createdAt,value
2023-04-24T00:00:21.595Z,27.68
2023-04-24T00:02:51.918Z,27.90
2023-04-24T00:05:22.096Z,27.62
2023-04-24T00:07:56.119Z,25.50
2023-04-24T00:10:25.928Z,26.93
2023-04-24T00:12:56.044Z,27.70
2023-04-24T00:15:25.721Z,25.77
2023-04-24T00:17:55.608Z,24.83
2023-04-24T00:20:25.377Z,29.13
2023-04-24T00:22:55.568Z,25.45
2023-04-24T00:25:25.197Z,25.97
2023-04-24T00:27:55.305Z,25.82
2023-04-24T00:30:25.315Z,26.93
2023-04-24T00:32:55.634Z,25.75
2023-04-24T00:35:25.868Z,26.55
2023-04-24T00:37:56.231Z,29.25
2023-04-24T00:40:25.751Z,29.87
2023-04-24T00:42:56.675Z,28.65
2023-04-24T00:45:27.521Z,29.23
2023-04-24T00:47:58.129Z,28.15
2023-04-24T00:50:28.055Z,29.63
2023-04-24T00:52:59.180Z,25.82
2023-04-24T00:55:29.448Z,26.27
2023-04-24T00:58:00.381Z,26.17
2023-04-24T01:00:31.022Z,26.97
2023-04-24T01:03:03.623Z,25.32
2023-04-24T01:05:35.241Z,20.80
2023-04-24T01:08:05.612Z,20.60
2023-04-24T01:10:36.565Z,20.80
2023-04-24T01:13:06.751Z,21.27
2023-04-24T01:15:37.355Z,24.70
2023-04-24T01:18:07.678Z,23.20
2023-04-24T01:20:40.269Z,23.90
2023-04-24T01:23:10.632Z,27.17
2023-04-24T01:25:40.766Z,23.10
2023-04-24T01:28:11.240Z,24.50
2023-04-24T01:30:41.282Z,25.93
2023-04-24T01:33:11.651Z,27.17
2023-04-24T01:35:42.047Z,32.80
2023-04-24T01:38:11.981Z,30.67
2023-04-24T01:40:42.258Z,29.72
2023-04-24T01:43:13.048Z,30.27
2023-04-24T01:45:42.907Z,30.60
2023-04-24T01:48:14.588Z,28.12
2023-04-24T01:50:44.528Z,33.13
2023-04-24T01:53:14.889Z,34.80
2023-04-24T01:55:45.018Z,39.47
2023-04-24T01:58:16.277Z,34.80
2023-04-24T02:00:46.438Z,32.73
2023-04-24T02:03:17.359Z,37.67
2023-04-24T02:05:47.234Z,32.73
2023-04-24T02:08:17.352Z,32.25
2023-04-24T02:10:47.465Z,34.40
2023-04-24T02:13:17.592Z,34.60
2023-04-24T02:15:47.432Z,29.67
2023-04-24T02:18:17.790Z,27.65
2023-04-24T02:20:47.592Z,27.70
2023-04-24T02:23:17.734Z,28.32
2023-04-24T02:25:48.231Z,31.37
2023-04-24T02:28:20.148Z,27.70
2023-04-24T02:30:49.948Z,32.47
2023-04-24T02:33:20.146Z,30.57
2023-04-24T02:35:50.036Z,32.13
2023-04-24T02:38:20.271Z,32.13
2023-04-24T02:40:50.135Z,27.77
2023-04-24T02:43:20.255Z,30.40
2023-04-24T02:45:50.233Z,35.80
2023-04-24T02:48:21.760Z,34.35
2023-04-24T02:50:51.997Z,33.93
2023-04-24T02:53:22.182Z,39.23
2023-04-24T02:55:52.013Z,44.40
2023-04-24T02:58:22.193Z,48.33
2023-04-24T03:00:59.207Z,44.70
2023-04-24T03:03:29.236Z,51.97
2023-04-24T03:05:59.748Z,48.50
2023-04-24T03:08:29.573Z,53.20
2023-04-24T03:10:59.447Z,52.50
2023-04-24T03:13:29.265Z,50.67
2023-04-24T03:15:59.182Z,52.47
2023-04-24T03:18:29.624Z,51.63
2023-04-24T03:21:00.339Z,55.58
2023-04-24T03:23:30.501Z,51.43
2023-04-24T03:26:00.542Z,51.73
2023-04-24T03:28:30.491Z,56.55
2023-04-24T03:31:02.318Z,53.52
2023-04-24T03:33:33.844Z,55.07
2023-04-24T03:36:04.289Z,53.47
2023-04-24T03:38:41.473Z,52.23
2023-04-24T03:41:18.787Z,54.33
2023-04-24T03:43:50.540Z,53.83
2023-04-24T03:46:21.364Z,46.20
2023-04-24T03:48:52.924Z,46.73
2023-04-24T03:51:24.523Z,50.20
2023-04-24T03:53:56.367Z,47.00
2023-04-24T03:56:26.683Z,47.33
2023-04-24T03:58:56.501Z,50.00
2023-04-24T04:01:26.547Z,45.13
2023-04-24T04:04:01.147Z,46.40
2023-04-24T04:06:35.425Z,45.80
2023-04-24T04:09:05.571Z,46.70
2023-04-24T04:11:36.328Z,42.10
2023-04-24T04:14:06.362Z,48.30
2023-04-24T04:16:37.551Z,42.80
2023-04-24T04:19:08.520Z,44.97
2023-04-24T04:21:38.498Z,44.00
2023-04-24T04:24:12.786Z,44.10
2023-04-24T04:26:46.254Z,43.13
2023-04-24T04:29:18.737Z,38.73
2023-04-24T04:31:49.309Z,43.60
2023-04-24T04:34:19.393Z,40.52
2023-04-24T04:36:49.236Z,36.60
2023-04-24T04:39:32.759Z,39.03
2023-04-24T04:42:04.838Z,37.60
2023-04-24T04:44:36.920Z,36.50
2023-04-24T04:47:07.544Z,34.77
2023-04-24T04:49:39.906Z,37.03
2023-04-24T04:52:12.191Z,31.87
2023-04-24T04:54:42.292Z,37.50
2023-04-24T04:57:13.013Z,33.43
2023-04-24T04:59:43.350Z,34.67
2023-04-24T05:02:15.111Z,36.28
2023-04-24T05:04:46.362Z,36.57
2023-04-24T05:07:16.955Z,33.17
2023-04-24T05:09:48.513Z,31.80
2023-04-24T05:12:18.406Z,37.32
2023-04-24T05:14:50.885Z,33.37
2023-04-24T05:17:20.784Z,36.65
2023-04-24T05:19:50.443Z,34.35
2023-04-24T05:22:21.915Z,32.67
2023-04-24T05:24:54.158Z,32.00
2023-04-24T05:27:42.210Z,32.13
2023-04-24T05:30:14.634Z,29.95
2023-04-24T05:32:44.660Z,25.57
2023-04-24T05:35:14.257Z,21.50
2023-04-24T05:37:44.144Z,23.40
2023-04-24T05:40:14.472Z,16.60
2023-04-24T05:42:45.192Z,14.20
2023-04-24T05:45:16.649Z,17.92
2023-04-24T05:47:46.643Z,17.30
2023-04-24T05:50:17.448Z,16.32
2023-04-24T05:52:47.455Z,16.33
2023-04-24T05:55:19.456Z,15.72
2023-04-24T05:57:49.430Z,12.30
2023-04-24T06:00:20.778Z,12.83
2023-04-24T06:02:53.975Z,8.47
2023-04-24T06:05:24.557Z,12.55
2023-04-24T06:07:55.969Z,9.30
2023-04-24T06:10:27.483Z,7.17
2023-04-24T06:12:58.975Z,8.10
2023-04-24T06:15:31.925Z,5.57
2023-04-24T06:18:06.456Z,6.67
2023-04-24T06:20:36.369Z,6.65
2023-04-24T06:23:06.220Z,4.40
2023-04-24T06:25:36.426Z,4.60
2023-04-24T06:28:07.049Z,6.23
2023-04-24T06:30:38.474Z,3.27
2023-04-24T06:33:19.615Z,3.17
2023-04-24T06:35:39.992Z,3.50
2023-04-24T06:38:09.599Z,3.00
2023-04-24T06:40:40.102Z,1.42
2023-04-24T06:43:10.602Z,2.60
2023-04-24T06:45:41.263Z,2.03
2023-04-24T06:48:11.864Z,1.87
2023-04-24T06:50:41.729Z,1.10
2023-04-24T06:53:13.170Z,1.00
2023-04-24T06:55:44.208Z,0.80
2023-04-24T06:58:14.703Z,1.52
2023-04-24T07:00:44.484Z,0.60
2023-04-24T07:03:14.486Z,2.10
2023-04-24T07:05:44.417Z,2.33
2023-04-24T07:08:17.407Z,1.45
2023-04-24T07:10:47.202Z,3.10
2023-04-24T07:13:17.302Z,2.12
2023-04-24T07:15:47.194Z,2.70
2023-04-24T07:18:17.333Z,2.02
2023-04-24T07:20:47.517Z,4.85
2023-04-24T07:23:17.584Z,5.13
2023-04-24T07:25:47.891Z,4.17
2023-04-24T07:28:18.935Z,2.45
2023-04-24T07:30:48.794Z,4.63
2023-04-24T07:33:18.758Z,7.60
2023-04-24T07:35:48.624Z,11.50
2023-04-24T07:38:20.178Z,14.38
2023-04-24T07:40:50.533Z,18.20
2023-04-24T07:43:22.357Z,18.50
2023-04-24T07:45:53.046Z,23.75
2023-04-24T07:48:23.208Z,25.27
2023-04-24T07:50:53.016Z,25.53
2023-04-24T07:53:22.960Z,27.77
2023-04-24T07:55:52.796Z,24.90
2023-04-24T07:58:22.674Z,29.10
2023-04-24T08:00:53.197Z,25.33
2023-04-24T08:03:22.963Z,27.25
2023-04-24T08:05:53.319Z,28.73
2023-04-24T08:08:24.902Z,30.47
2023-04-24T08:10:55.825Z,23.32
2023-04-24T08:13:25.919Z,28.03
2023-04-24T08:15:56.205Z,25.82
2023-04-24T08:18:25.839Z,22.47
2023-04-24T08:20:55.799Z,23.97
2023-04-24T08:23:25.699Z,30.93
2023-04-24T08:25:55.936Z,25.00
2023-04-24T08:28:25.661Z,23.50
2023-04-24T08:33:28.122Z,27.60
2023-04-24T08:35:58.262Z,21.00
2023-04-24T08:38:27.863Z,33.78
2023-04-24T08:41:00.387Z,32.40
2023-04-24T08:43:30.617Z,26.90
2023-04-24T08:46:01.253Z,41.07
2023-04-24T08:48:32.404Z,32.70
2023-04-24T08:51:03.229Z,29.27
2023-04-24T08:53:34.799Z,19.50
2023-04-24T08:56:05.711Z,22.67
2023-04-24T08:58:36.093Z,29.57
2023-04-24T09:01:07.230Z,19.87
2023-04-24T09:03:37.853Z,26.80
2023-04-24T09:06:11.392Z,23.77
2023-04-24T09:08:42.966Z,21.00
2023-04-24T09:11:13.398Z,21.27
2023-04-24T09:13:45.048Z,19.65
2023-04-24T09:16:15.755Z,27.27
2023-04-24T09:18:45.633Z,19.37
2023-04-24T09:21:15.684Z,16.73
2023-04-24T09:23:45.950Z,20.30
2023-04-24T09:26:15.920Z,17.12
2023-04-24T09:28:47.074Z,19.60
2023-04-24T09:31:19.677Z,21.07
2023-04-24T09:34:02.311Z,17.33
2023-04-24T09:36:40.197Z,18.87
2023-04-24T09:39:16.370Z,13.33
2023-04-24T09:41:48.094Z,14.03
2023-04-24T09:44:19.398Z,13.15
2023-04-24T09:46:55.636Z,17.10
2023-04-24T09:49:29.423Z,12.50
2023-04-24T09:52:13.191Z,17.10
2023-04-24T09:54:43.117Z,15.07
2023-04-24T09:57:12.969Z,13.90
2023-04-24T09:59:47.821Z,12.07
2023-04-24T10:02:23.569Z,14.23
2023-04-24T10:05:01.454Z,12.53
2023-04-24T10:07:33.170Z,13.20
2023-04-24T10:10:03.307Z,5.60
2023-04-24T10:12:33.586Z,14.07
2023-04-24T10:15:04.157Z,8.80
2023-04-24T10:17:34.390Z,13.73
2023-04-24T10:20:08.132Z,10.80
2023-04-24T10:22:38.868Z,8.73
2023-04-24T10:25:09.261Z,11.10
2023-04-24T10:27:39.865Z,11.13
2023-04-24T10:30:11.062Z,8.64
2023-04-24T10:32:41.028Z,7.40
2023-04-24T10:35:11.922Z,6.43
2023-04-24T10:38:08.654Z,5.00
2023-04-24T10:40:38.901Z,7.73
2023-04-24T10:43:13.270Z,5.93
2023-04-24T10:45:43.142Z,9.93
2023-04-24T10:48:14.902Z,7.08
2023-04-24T10:50:48.533Z,9.98
2023-04-24T10:53:21.263Z,8.08
2023-04-24T10:56:02.599Z,7.20
2023-04-24T10:58:41.654Z,5.95
2023-04-24T11:01:13.013Z,6.37
2023-04-24T11:03:47.755Z,3.98
2023-04-24T11:06:17.740Z,7.03
2023-04-24T11:08:50.034Z,5.67
2023-04-24T11:11:22.226Z,3.40
2023-04-24T11:14:00.965Z,2.87
2023-04-24T11:16:39.952Z,5.90
2023-04-24T11:19:12.201Z,3.93
2023-04-24T11:21:44.499Z,4.40
2023-04-24T11:24:43.497Z,6.33
2023-04-24T11:27:20.919Z,7.70
2023-04-24T11:30:05.377Z,3.23
2023-04-24T11:32:38.457Z,4.78
2023-04-24T11:35:26.118Z,4.97
2023-04-24T11:40:28.223Z,5.53
2023-04-24T11:42:58.196Z,6.83
2023-04-24T11:45:31.034Z,7.93
2023-04-24T11:48:01.024Z,8.03
2023-04-24T11:50:31.249Z,7.53
2023-04-24T11:53:01.446Z,7.30
2023-04-24T11:55:31.762Z,4.70
2023-04-24T11:58:02.523Z,4.80
2023-04-24T12:00:37.657Z,5.70
2023-04-24T12:03:10.190Z,6.07
2023-04-24T12:05:41.460Z,5.10
2023-04-24T12:08:12.577Z,3.05
2023-04-24T12:10:42.363Z,2.60
2023-04-24T12:13:12.710Z,3.23
2023-04-24T12:15:43.281Z,2.87
2023-04-24T12:18:14.846Z,3.37
2023-04-24T12:20:44.683Z,3.97
2023-04-24T12:23:14.277Z,2.85
2023-04-24T12:25:44.113Z,5.43
2023-04-24T12:28:15.139Z,6.35
2023-04-24T12:30:46.647Z,5.03
2023-04-24T12:33:21.490Z,4.03
2023-04-24T12:35:56.474Z,4.27
2023-04-24T12:38:30.489Z,11.65
2023-04-24T12:41:12.014Z,7.70
2023-04-24T12:43:52.938Z,6.33
2023-04-24T12:46:23.029Z,6.08
2023-04-24T12:48:52.973Z,6.27
2023-04-24T12:51:22.882Z,6.47
2023-04-24T12:53:56.065Z,4.47
2023-04-24T12:56:25.368Z,2.47
2023-04-24T12:58:55.353Z,5.37
2023-04-24T13:01:25.312Z,6.03
2023-04-24T13:03:55.935Z,5.97
2023-04-24T13:06:27.280Z,3.60
2023-04-24T13:08:58.845Z,5.73
2023-04-24T13:11:29.006Z,3.20
2023-04-24T13:13:58.795Z,5.43
2023-04-24T13:16:28.759Z,5.43
2023-04-24T13:18:58.566Z,4.43
2023-04-24T13:21:28.439Z,3.97
2023-04-24T13:23:58.371Z,9.67
2023-04-24T13:26:28.149Z,4.13
2023-04-24T13:28:57.965Z,4.40
2023-04-24T13:31:27.844Z,5.53
2023-04-24T13:33:57.707Z,5.83
2023-04-24T13:36:27.781Z,4.47
2023-04-24T13:38:57.621Z,4.47
2023-04-24T13:41:27.572Z,6.17
2023-04-24T13:43:57.772Z,5.60
2023-04-24T13:46:28.051Z,7.00
2023-04-24T13:48:58.461Z,3.67
2023-04-24T13:51:28.724Z,5.57
2023-04-24T13:53:58.354Z,4.65
2023-04-24T13:56:28.498Z,8.40
2023-04-24T13:58:58.848Z,9.20
2023-04-24T14:01:28.764Z,6.53
2023-04-24T14:03:59.119Z,9.33
2023-04-24T14:06:29.109Z,9.17
2023-04-24T14:08:59.018Z,6.90
2023-04-24T14:11:29.384Z,9.15
2023-04-24T14:13:59.294Z,9.73
2023-04-24T14:16:30.196Z,6.27
2023-04-24T14:19:00.242Z,10.03
2023-04-24T14:21:30.076Z,8.83
2023-04-24T14:23:59.873Z,7.00
2023-04-24T14:26:29.806Z,9.80
2023-04-24T14:29:11.535Z,9.87
2023-04-24T14:31:31.825Z,13.70
2023-04-24T14:34:01.982Z,15.83
2023-04-24T14:36:32.556Z,9.30
2023-04-24T14:39:04.234Z,8.60
2023-04-24T14:41:36.827Z,12.80
2023-04-24T14:44:08.181Z,8.07
2023-04-24T14:46:38.057Z,14.03
2023-04-24T14:49:09.577Z,9.30
2023-04-24T14:51:40.105Z,8.90
2023-04-24T14:54:11.317Z,8.80
2023-04-24T14:56:41.958Z,9.07
2023-04-24T14:59:12.298Z,8.37
2023-04-24T15:01:42.118Z,9.83
2023-04-24T15:04:11.917Z,8.20
2023-04-24T15:06:41.784Z,10.63
2023-04-24T15:09:11.599Z,9.60
2023-04-24T15:11:41.551Z,4.53
2023-04-24T15:14:12.326Z,8.94
2023-04-24T15:16:42.782Z,10.53
2023-04-24T15:19:12.744Z,7.50
2023-04-24T15:21:43.576Z,4.60
2023-04-24T15:24:13.073Z,5.73
2023-04-24T15:26:42.923Z,6.07
2023-04-24T15:29:12.798Z,12.33
2023-04-24T15:31:42.889Z,8.17
2023-04-24T15:34:12.745Z,9.58
2023-04-24T15:36:42.865Z,9.28
2023-04-24T15:39:12.857Z,8.80
2023-04-24T15:41:42.708Z,9.03
2023-04-24T15:44:12.249Z,7.00
2023-04-24T15:46:42.165Z,11.10
2023-04-24T15:49:12.169Z,16.23
2023-04-24T15:51:42.469Z,11.73
2023-04-24T15:54:12.023Z,11.97
2023-04-24T15:56:41.843Z,10.70
2023-04-24T15:59:11.841Z,10.03
2023-04-24T16:01:41.911Z,12.53
2023-04-24T16:04:12.221Z,16.47
2023-04-24T16:06:42.544Z,10.50
2023-04-24T16:09:13.481Z,11.20
2023-04-24T16:11:44.479Z,10.00
2023-04-24T16:14:14.318Z,7.55
2023-04-24T16:16:44.482Z,9.53
2023-04-24T16:19:14.681Z,7.58
2023-04-24T16:21:44.536Z,9.40
2023-04-24T16:24:14.495Z,11.30
2023-04-24T16:26:44.859Z,13.68
2023-04-24T16:29:15.496Z,12.10
2023-04-24T16:31:45.666Z,12.23
2023-04-24T16:34:15.664Z,10.07
2023-04-24T16:36:45.739Z,14.77
2023-04-24T16:39:15.355Z,8.80
2023-04-24T16:41:45.343Z,17.00
2023-04-24T16:44:14.952Z,18.40
2023-04-24T16:46:44.956Z,12.43
2023-04-24T16:49:15.148Z,15.97
2023-04-24T16:51:45.453Z,10.15
2023-04-24T16:54:15.036Z,10.93
2023-04-24T16:56:45.030Z,15.77
2023-04-24T16:59:15.012Z,15.77
2023-04-24T17:01:45.015Z,15.73
2023-04-24T17:04:15.157Z,14.93
2023-04-24T17:06:45.093Z,16.47
2023-04-24T17:09:15.761Z,16.60
2023-04-24T17:11:45.668Z,10.37
2023-04-24T17:14:15.255Z,12.07
2023-04-24T17:16:46.078Z,9.07
2023-04-24T17:19:16.178Z,9.47
2023-04-24T17:21:46.362Z,11.37
2023-04-24T17:24:16.104Z,9.90
2023-04-24T17:26:46.179Z,10.80
2023-04-24T17:29:16.124Z,8.43
2023-04-24T17:31:46.397Z,13.00
2023-04-24T17:34:16.128Z,11.10
2023-04-24T17:36:46.068Z,10.67
2023-04-24T17:39:16.642Z,9.40
2023-04-24T17:41:46.555Z,10.60
2023-04-24T17:44:16.385Z,10.63
2023-04-24T17:46:46.676Z,12.30
2023-04-24T17:49:16.276Z,16.50
2023-04-24T17:51:46.218Z,17.77
2023-04-24T17:56:42.364Z,15.53
2023-04-24T17:59:12.295Z,14.77
2023-04-24T18:01:42.274Z,15.57
2023-04-24T18:04:12.172Z,15.13
2023-04-24T18:06:42.262Z,12.63
2023-04-24T18:09:12.870Z,11.97
2023-04-24T18:11:42.978Z,20.13
2023-04-24T18:14:12.858Z,17.32
2023-04-24T18:16:42.678Z,13.33
2023-04-24T18:19:12.820Z,13.88
2023-04-24T18:21:42.421Z,13.95
2023-04-24T18:24:12.345Z,13.70
2023-04-24T18:26:42.310Z,16.50
2023-04-24T18:29:12.175Z,12.30
2023-04-24T18:31:42.116Z,12.87
2023-04-24T18:34:11.951Z,14.93
2023-04-24T18:36:41.740Z,15.80
2023-04-24T18:39:11.551Z,15.70
2023-04-24T18:41:41.450Z,13.30
2023-04-24T18:44:11.956Z,16.92
2023-04-24T18:46:41.823Z,17.03
2023-04-24T18:49:11.746Z,12.50
2023-04-24T18:51:53.240Z,20.37
2023-04-24T18:54:13.147Z,14.77
2023-04-24T18:56:42.994Z,13.63
2023-04-24T18:59:12.792Z,16.10
2023-04-24T19:01:42.765Z,17.37
2023-04-24T19:04:13.709Z,12.75
2023-04-24T19:06:43.599Z,18.53
2023-04-24T19:09:14.484Z,13.38
2023-04-24T19:11:44.730Z,22.13
2023-04-24T19:14:16.101Z,17.37
2023-04-24T19:16:46.201Z,18.70
2023-04-24T19:19:16.113Z,18.07
2023-04-24T19:21:47.340Z,21.60
2023-04-24T19:24:18.947Z,19.77
2023-04-24T19:26:49.108Z,18.77
2023-04-24T19:29:18.937Z,19.47
2023-04-24T19:31:48.821Z,19.60
2023-04-24T19:34:18.650Z,17.02
2023-04-24T19:36:48.184Z,19.85
2023-04-24T19:39:17.969Z,17.77
2023-04-24T19:41:47.842Z,15.20
2023-04-24T19:44:17.656Z,25.88
2023-04-24T19:46:48.240Z,18.17
2023-04-24T19:49:18.320Z,20.90
2023-04-24T19:51:48.204Z,22.97
2023-04-24T19:54:19.809Z,16.80
2023-04-24T19:56:49.680Z,23.40
2023-04-24T19:59:19.488Z,22.20
2023-04-24T20:01:50.810Z,15.33
2023-04-24T20:04:22.740Z,17.65
2023-04-24T20:06:52.730Z,15.90
2023-04-24T20:09:22.842Z,17.30
2023-04-24T20:11:53.583Z,17.30
2023-04-24T20:14:23.271Z,15.70
2023-04-24T20:16:54.327Z,29.53
2023-04-24T20:19:24.128Z,19.60
2023-04-24T20:21:54.689Z,19.83
2023-04-24T20:24:24.222Z,17.77
2023-04-24T20:26:53.997Z,17.20
2023-04-24T20:29:23.860Z,13.33
2023-04-24T20:31:54.149Z,19.03
2023-04-24T20:34:24.553Z,14.55
2023-04-24T20:36:56.013Z,20.07
2023-04-24T20:39:26.626Z,23.47
2023-04-24T20:41:58.235Z,15.23
2023-04-24T20:44:27.936Z,16.80
2023-04-24T20:46:57.793Z,17.50
2023-04-24T20:49:27.378Z,20.30
2023-04-24T20:51:59.097Z,18.83
2023-04-24T20:54:28.863Z,12.95
2023-04-24T20:56:58.647Z,13.40
2023-04-24T20:59:29.022Z,11.53
2023-04-24T21:01:59.157Z,13.28
2023-04-24T21:04:29.077Z,10.13
2023-04-24T21:06:58.926Z,14.13
2023-04-24T21:09:28.796Z,12.37
2023-04-24T21:11:59.075Z,11.30
2023-04-24T21:14:28.907Z,6.97
2023-04-24T21:16:59.887Z,11.37
2023-04-24T21:19:29.891Z,10.63
2023-04-24T21:22:00.615Z,8.18
2023-04-24T21:24:30.800Z,10.40
2023-04-24T21:27:01.191Z,5.97
2023-04-24T21:29:31.088Z,12.10
2023-04-24T21:32:01.237Z,11.68
2023-04-24T21:34:30.998Z,12.47
2023-04-24T21:37:00.803Z,16.40
2023-04-24T21:39:30.633Z,5.27
2023-04-24T21:42:00.501Z,6.00
2023-04-24T21:44:30.633Z,6.20
2023-04-24T21:47:00.871Z,8.70
2023-04-24T21:49:30.689Z,9.27
2023-04-24T21:52:00.544Z,6.07
2023-04-24T21:54:30.329Z,9.97
2023-04-24T21:57:02.196Z,7.27
2023-04-24T21:59:32.150Z,8.73
2023-04-24T22:02:01.697Z,8.90
2023-04-24T22:04:31.676Z,6.37
2023-04-24T22:07:01.754Z,8.30
2023-04-24T22:09:31.853Z,6.35
2023-04-24T22:12:01.691Z,11.93
2023-04-24T22:14:31.292Z,5.90
2023-04-24T22:17:01.118Z,9.97
2023-04-24T22:19:30.925Z,10.93
2023-04-24T22:22:00.815Z,12.00
2023-04-24T22:24:30.682Z,12.20
2023-04-24T22:27:00.500Z,7.97
2023-04-24T22:29:31.503Z,7.37
2023-04-24T22:32:01.529Z,10.77
2023-04-24T22:34:31.638Z,12.68
2023-04-24T22:37:01.845Z,6.60
2023-04-24T22:39:31.630Z,7.27
2023-04-24T22:42:01.931Z,10.85
2023-04-24T22:44:31.830Z,12.03
2023-04-24T22:47:03.303Z,6.90
2023-04-24T22:49:34.830Z,13.27
2023-04-24T22:52:06.410Z,8.08
2023-04-24T22:54:36.258Z,11.20
2023-04-24T22:57:06.250Z,6.23
2023-04-24T22:59:36.186Z,10.97
2023-04-24T23:02:07.972Z,10.30
2023-04-24T23:04:37.819Z,6.90
2023-04-24T23:07:07.613Z,8.73
2023-04-24T23:09:37.200Z,14.05
2023-04-24T23:12:09.563Z,8.24
2023-04-24T23:14:39.652Z,8.20
2023-04-24T23:17:09.814Z,7.47
2023-04-24T23:19:39.678Z,5.00
2023-04-24T23:22:11.368Z,5.75
2023-04-24T23:24:41.326Z,9.80
2023-04-24T23:27:11.360Z,5.50
2023-04-24T23:29:41.191Z,10.63
2023-04-24T23:32:11.557Z,7.16
2023-04-24T23:34:41.457Z,8.30
2023-04-24T23:37:12.308Z,9.20
2023-04-24T23:39:42.087Z,8.53
2023-04-24T23:42:12.927Z,9.14
2023-04-24T23:44:42.840Z,9.77
2023-04-24T23:47:12.729Z,10.43
2023-04-24T23:49:42.885Z,8.58
2023-04-24T23:52:12.750Z,13.58
2023-04-24T23:54:42.903Z,8.25
2023-04-24T23:57:12.722Z,7.17
2023-04-24T23:59:42.532Z,12.27
